createdAt,value
2023-01-17T00:02:20.607Z,5.68
2023-01-17T00:05:06.749Z,5.38
2023-01-17T00:07:53.092Z,6.53
2023-01-17T00:10:23.943Z,4.65
2023-01-17T00:12:54.577Z,6.32
2023-01-17T00:15:23.641Z,5.15
2023-01-17T00:17:51.932Z,5.82
2023-01-17T00:20:49.877Z,5.72
2023-01-17T00:26:06.973Z,5.50
2023-01-17T00:28:37.007Z,6.60
2023-01-17T00:31:05.770Z,6.53
2023-01-17T00:33:33.577Z,5.75
2023-01-17T00:36:04.450Z,6.32
2023-01-17T00:38:34.290Z,5.90
2023-01-17T00:41:05.775Z,7.07
2023-01-17T00:43:52.445Z,6.45
2023-01-17T00:46:39.776Z,6.72
2023-01-17T00:52:12.139Z,5.22
2023-01-17T00:54:58.157Z,6.75
2023-01-17T00:57:43.987Z,6.00
2023-01-17T01:00:31.099Z,6.88
2023-01-17T01:03:16.890Z,7.38
2023-01-17T01:06:02.803Z,7.28
2023-01-17T01:08:49.132Z,6.10
2023-01-17T01:11:38.946Z,7.13
2023-01-17T01:14:28.573Z,9.25
2023-01-17T01:17:14.438Z,6.97
2023-01-17T01:20:00.456Z,6.35
2023-01-17T01:22:46.531Z,6.20
2023-01-17T01:25:32.378Z,6.03
2023-01-17T01:28:26.099Z,5.85
2023-01-17T01:31:11.770Z,6.68
2023-01-17T01:33:39.160Z,6.25
2023-01-17T01:36:09.004Z,6.18
2023-01-17T01:38:36.561Z,5.85
2023-01-17T01:41:04.458Z,5.50
2023-01-17T01:43:44.877Z,6.60
2023-01-17T01:46:34.433Z,5.70
2023-01-17T01:49:11.914Z,5.95
2023-01-17T01:51:45.658Z,6.32
2023-01-17T01:54:23.815Z,6.45
2023-01-17T01:56:53.810Z,6.03
2023-01-17T01:59:22.857Z,6.47
2023-01-17T02:01:53.031Z,6.85
2023-01-17T02:04:21.551Z,6.65
2023-01-17T02:07:04.036Z,5.20
2023-01-17T02:09:31.307Z,5.60
2023-01-17T02:11:59.168Z,6.30
2023-01-17T02:14:26.654Z,5.78
2023-01-17T02:17:01.263Z,5.50
2023-01-17T02:20:03.281Z,5.35
2023-01-17T02:23:08.843Z,5.65
2023-01-17T02:25:54.522Z,5.63
2023-01-17T02:28:36.840Z,5.32
2023-01-17T02:31:18.324Z,5.53
2023-01-17T02:33:55.350Z,5.15
2023-01-17T02:39:24.960Z,4.68
2023-01-17T02:41:59.674Z,5.30
2023-01-17T02:44:26.963Z,5.22
2023-01-17T02:46:56.427Z,5.40
2023-01-17T02:49:30.349Z,5.40
2023-01-17T02:52:00.803Z,5.22
2023-01-17T02:54:44.303Z,6.25
2023-01-17T02:57:14.732Z,5.38
2023-01-17T02:59:58.336Z,5.57
2023-01-17T03:03:07.797Z,5.65
2023-01-17T03:06:01.033Z,5.53
2023-01-17T03:08:29.155Z,6.00
2023-01-17T03:10:56.968Z,4.80
2023-01-17T03:13:24.341Z,4.78
2023-01-17T03:15:51.800Z,4.60
2023-01-17T03:18:19.243Z,4.75
2023-01-17T03:20:46.604Z,4.50
2023-01-17T03:23:13.923Z,5.00
2023-01-17T03:25:41.608Z,4.82
2023-01-17T03:28:09.295Z,4.47
2023-01-17T03:30:36.810Z,4.18
2023-01-17T03:33:04.170Z,4.10
2023-01-17T03:35:31.425Z,4.88
2023-01-17T03:37:58.897Z,6.20
2023-01-17T03:40:26.284Z,4.57
2023-01-17T03:42:53.586Z,5.05
2023-01-17T03:45:20.948Z,5.10
2023-01-17T03:47:48.189Z,5.03
2023-01-17T03:50:15.666Z,5.63
2023-01-17T03:52:42.934Z,4.30
2023-01-17T03:55:10.805Z,4.20
2023-01-17T03:57:38.670Z,4.75
2023-01-17T04:00:06.789Z,5.22
2023-01-17T04:02:34.302Z,5.40
2023-01-17T04:05:01.798Z,4.57
2023-01-17T04:07:29.075Z,4.72
2023-01-17T04:09:56.929Z,4.80
2023-01-17T04:12:24.166Z,4.65
2023-01-17T04:14:51.866Z,4.32
2023-01-17T04:17:20.724Z,5.30
2023-01-17T04:19:48.136Z,4.63
2023-01-17T04:22:15.428Z,4.75
2023-01-17T04:24:42.710Z,5.05
2023-01-17T04:27:14.196Z,5.22
2023-01-17T04:29:41.582Z,4.88
2023-01-17T04:32:09.428Z,4.97
2023-01-17T04:34:36.891Z,5.43
2023-01-17T04:37:04.221Z,4.75
2023-01-17T04:39:31.590Z,3.83
2023-01-17T04:41:59.350Z,4.10
2023-01-17T04:44:26.493Z,4.13
2023-01-17T04:46:54.063Z,3.85
2023-01-17T04:49:21.682Z,4.00
2023-01-17T04:51:48.876Z,3.88
2023-01-17T04:54:16.231Z,4.03
2023-01-17T04:56:44.547Z,4.00
2023-01-17T04:59:11.887Z,4.45
2023-01-17T05:01:39.340Z,4.45
2023-01-17T05:04:06.734Z,5.05
2023-01-17T05:06:34.049Z,4.45
2023-01-17T05:09:03.047Z,3.72
2023-01-17T05:11:30.393Z,3.90
2023-01-17T05:13:58.160Z,3.40
2023-01-17T05:16:25.731Z,3.88
2023-01-17T05:18:53.686Z,3.92
2023-01-17T05:21:21.991Z,3.35
2023-01-17T05:23:49.365Z,3.90
2023-01-17T05:26:16.989Z,3.97
2023-01-17T05:28:44.262Z,4.13
2023-01-17T05:31:11.623Z,4.70
2023-01-17T05:33:38.914Z,4.00
2023-01-17T05:36:06.621Z,4.75
2023-01-17T05:38:33.943Z,4.10
2023-01-17T05:41:02.141Z,3.92
2023-01-17T05:43:29.646Z,4.20
2023-01-17T05:45:57.200Z,4.20
2023-01-17T05:48:24.580Z,3.53
2023-01-17T05:50:52.254Z,4.43
2023-01-17T05:53:19.985Z,4.03
2023-01-17T05:55:48.215Z,4.15
2023-01-17T05:58:21.863Z,4.03
2023-01-17T06:00:49.562Z,4.20
2023-01-17T06:03:17.356Z,3.58
2023-01-17T06:05:45.283Z,3.85
2023-01-17T06:08:12.595Z,4.15
2023-01-17T06:10:39.974Z,4.22
2023-01-17T06:13:13.599Z,4.47
2023-01-17T06:15:41.392Z,3.50
2023-01-17T06:18:13.740Z,4.47
2023-01-17T06:20:41.359Z,6.05
2023-01-17T06:23:12.163Z,4.07
2023-01-17T06:25:43.592Z,4.85
2023-01-17T06:28:13.194Z,4.55
2023-01-17T06:30:41.106Z,4.30
2023-01-17T06:33:08.699Z,3.30
2023-01-17T06:35:37.613Z,4.85
2023-01-17T06:38:04.946Z,4.68
2023-01-17T06:40:32.288Z,4.47
2023-01-17T06:43:01.754Z,3.60
2023-01-17T06:45:30.034Z,3.97
2023-01-17T06:47:59.234Z,4.70
2023-01-17T06:50:27.186Z,5.22
2023-01-17T06:52:58.465Z,5.18
2023-01-17T06:55:28.830Z,6.00
2023-01-17T06:57:57.761Z,5.43
2023-01-17T07:00:29.476Z,5.07
2023-01-17T07:02:57.046Z,4.82
2023-01-17T07:05:24.964Z,5.00
2023-01-17T07:07:53.587Z,4.75
2023-01-17T07:10:21.317Z,4.97
2023-01-17T07:12:48.699Z,5.07
2023-01-17T07:15:16.146Z,5.35
2023-01-17T07:17:43.427Z,4.50
2023-01-17T07:20:11.030Z,6.80
2023-01-17T07:22:38.469Z,6.18
2023-01-17T07:25:06.308Z,5.28
2023-01-17T07:27:35.041Z,5.15
2023-01-17T07:30:02.440Z,6.10
2023-01-17T07:32:29.869Z,6.30
2023-01-17T07:34:58.123Z,5.90
2023-01-17T07:37:26.413Z,5.97
2023-01-17T07:39:54.638Z,6.78
2023-01-17T07:42:24.223Z,7.43
2023-01-17T07:44:51.785Z,7.18
2023-01-17T07:47:20.269Z,7.63
2023-01-17T07:49:47.638Z,5.03
2023-01-17T07:52:17.412Z,5.70
2023-01-17T07:54:45.408Z,6.13
2023-01-17T07:57:12.795Z,4.82
2023-01-17T07:59:40.585Z,4.40
2023-01-17T08:02:17.875Z,4.80
2023-01-17T08:04:45.604Z,5.28
2023-01-17T08:07:14.055Z,5.32
2023-01-17T08:09:42.774Z,5.35
2023-01-17T08:12:10.680Z,5.35
2023-01-17T08:14:37.965Z,5.35
2023-01-17T08:17:14.833Z,5.35
2023-01-17T08:19:42.251Z,5.32
2023-01-17T08:22:09.592Z,5.40
2023-01-17T08:24:37.555Z,6.15
2023-01-17T08:27:05.027Z,5.43
2023-01-17T08:29:32.322Z,6.00
2023-01-17T08:31:59.695Z,5.63
2023-01-17T08:34:27.204Z,6.10
2023-01-17T08:36:54.562Z,5.47
2023-01-17T08:39:22.171Z,5.60
2023-01-17T08:41:49.565Z,6.82
2023-01-17T08:44:16.937Z,5.90
2023-01-17T08:46:44.348Z,6.13
2023-01-17T08:49:12.647Z,5.35
2023-01-17T08:51:40.454Z,6.13
2023-01-17T08:54:09.554Z,5.88
2023-01-17T08:56:37.064Z,6.40
2023-01-17T08:59:04.390Z,5.80
2023-01-17T09:01:41.673Z,6.20
2023-01-17T09:04:10.995Z,5.40
2023-01-17T09:06:39.920Z,6.07
2023-01-17T09:09:08.432Z,7.07
2023-01-17T09:11:35.876Z,6.35
2023-01-17T09:14:03.629Z,6.43
2023-01-17T09:16:31.257Z,7.38
2023-01-17T09:18:59.003Z,6.13
2023-01-17T09:21:27.112Z,8.20
2023-01-17T09:23:55.956Z,7.13
2023-01-17T09:26:26.674Z,5.97
2023-01-17T09:28:54.924Z,5.25
2023-01-17T09:31:23.566Z,4.43
2023-01-17T09:33:52.034Z,5.30
2023-01-17T09:36:20.218Z,4.50
2023-01-17T09:38:47.893Z,5.35
2023-01-17T09:41:35.013Z,5.40
2023-01-17T09:44:02.744Z,5.18
2023-01-17T09:46:37.290Z,5.05
2023-01-17T09:49:28.951Z,4.80
2023-01-17T09:51:56.265Z,4.43
2023-01-17T09:54:30.652Z,5.30
2023-01-17T09:57:09.637Z,5.22
2023-01-17T10:00:02.074Z,5.38
2023-01-17T10:02:34.415Z,5.60
2023-01-17T10:05:28.528Z,6.70
2023-01-17T10:08:08.764Z,6.43
2023-01-17T10:10:52.085Z,8.38
2023-01-17T10:13:33.151Z,6.68
2023-01-17T10:16:10.151Z,8.77
2023-01-17T10:18:59.351Z,10.57
2023-01-17T10:21:49.486Z,10.20
2023-01-17T10:24:58.990Z,9.70
2023-01-17T10:27:32.498Z,9.98
2023-01-17T10:30:03.355Z,10.00
2023-01-17T10:32:33.556Z,11.85
2023-01-17T10:35:06.120Z,11.63
2023-01-17T10:37:40.996Z,11.93
2023-01-17T10:40:18.038Z,12.88
2023-01-17T10:42:57.595Z,11.32
2023-01-17T10:45:29.298Z,12.27
2023-01-17T10:48:09.863Z,12.07
2023-01-17T10:50:58.809Z,11.80
2023-01-17T10:53:35.115Z,12.98
2023-01-17T10:56:03.335Z,11.88
2023-01-17T10:58:31.768Z,11.52
2023-01-17T11:01:02.337Z,12.10
2023-01-17T11:03:29.813Z,12.15
2023-01-17T11:06:16.083Z,12.52
2023-01-17T11:08:53.684Z,13.50
2023-01-17T11:11:33.176Z,15.23
2023-01-17T11:14:06.496Z,14.82
2023-01-17T11:16:34.101Z,14.63
2023-01-17T11:19:27.654Z,15.80
2023-01-17T11:22:04.968Z,11.95
2023-01-17T11:24:36.395Z,14.43
2023-01-17T11:27:08.205Z,11.98
2023-01-17T11:29:40.404Z,11.43
2023-01-17T11:32:31.119Z,11.43
2023-01-17T11:35:21.226Z,12.80
2023-01-17T11:37:50.924Z,12.45
2023-01-17T11:40:25.957Z,12.32
2023-01-17T11:43:14.212Z,9.90
2023-01-17T11:45:42.162Z,12.18
2023-01-17T11:48:10.027Z,14.35
2023-01-17T11:50:38.865Z,13.48
2023-01-17T11:53:20.511Z,13.10
2023-01-17T11:55:59.461Z,10.95
2023-01-17T11:58:28.281Z,11.07
2023-01-17T12:01:21.034Z,10.98
2023-01-17T12:03:56.980Z,11.32
2023-01-17T12:07:05.237Z,12.75
2023-01-17T12:09:47.468Z,11.93
2023-01-17T12:13:11.903Z,13.10
2023-01-17T12:15:58.111Z,12.05
2023-01-17T12:18:33.597Z,13.80
2023-01-17T12:21:09.965Z,12.15
2023-01-17T12:23:56.403Z,12.52
2023-01-17T12:26:40.222Z,12.00
2023-01-17T12:29:33.305Z,11.75
2023-01-17T12:32:21.468Z,11.55
2023-01-17T12:35:08.019Z,12.23
2023-01-17T12:37:39.956Z,10.52
2023-01-17T12:40:15.018Z,12.57
2023-01-17T12:42:49.647Z,11.32
2023-01-17T12:45:34.473Z,10.70
2023-01-17T12:48:13.186Z,11.23
2023-01-17T12:50:57.373Z,10.98
2023-01-17T12:53:59.200Z,10.57
2023-01-17T12:56:40.484Z,11.23
2023-01-17T12:59:28.720Z,10.38
2023-01-17T13:01:58.362Z,9.32
2023-01-17T13:04:58.711Z,11.02
2023-01-17T13:07:32.681Z,10.77
2023-01-17T13:10:20.379Z,10.98
2023-01-17T13:15:22.920Z,12.32
2023-01-17T13:17:54.899Z,10.73
2023-01-17T13:20:36.644Z,11.48
2023-01-17T13:23:15.243Z,11.27
2023-01-17T13:25:50.829Z,10.68
2023-01-17T13:28:21.888Z,11.38
2023-01-17T13:31:01.258Z,11.07
2023-01-17T13:33:34.416Z,10.07
2023-01-17T13:36:42.973Z,11.23
2023-01-17T13:39:17.511Z,11.52
2023-01-17T13:41:52.791Z,10.52
2023-01-17T13:44:24.371Z,11.68
2023-01-17T13:47:06.810Z,11.13
2023-01-17T13:49:38.442Z,11.32
2023-01-17T13:52:10.878Z,11.57
2023-01-17T13:54:44.977Z,12.13
2023-01-17T13:57:27.912Z,11.63
2023-01-17T13:59:59.204Z,11.07
2023-01-17T14:02:32.565Z,12.77
2023-01-17T14:05:15.089Z,13.15
2023-01-17T14:08:01.209Z,13.02
2023-01-17T14:10:37.689Z,14.15
2023-01-17T14:13:24.537Z,13.98
2023-01-17T14:15:52.361Z,12.18
2023-01-17T14:18:38.160Z,13.18
2023-01-17T14:21:07.861Z,12.98
2023-01-17T14:24:04.102Z,14.43
2023-01-17T14:26:43.113Z,14.13
2023-01-17T14:29:48.049Z,14.85
2023-01-17T14:32:24.513Z,15.32
2023-01-17T14:34:53.434Z,15.45
2023-01-17T14:37:27.329Z,15.85
2023-01-17T14:39:54.832Z,15.88
2023-01-17T14:42:25.121Z,16.20
2023-01-17T14:45:06.766Z,15.52
2023-01-17T14:47:39.286Z,14.82
2023-01-17T14:50:18.693Z,15.10
2023-01-17T14:52:46.491Z,13.50
2023-01-17T14:55:20.005Z,16.02
2023-01-17T14:57:57.246Z,16.20
2023-01-17T15:00:28.600Z,16.25
2023-01-17T15:02:59.308Z,15.90
2023-01-17T15:05:28.973Z,16.02
2023-01-17T15:07:58.129Z,16.77
2023-01-17T15:10:33.930Z,17.05
2023-01-17T15:13:09.103Z,16.55
2023-01-17T15:15:39.728Z,14.68
2023-01-17T15:18:19.481Z,13.98
2023-01-17T15:21:02.219Z,14.25
2023-01-17T15:23:34.508Z,15.43
2023-01-17T15:26:04.555Z,14.05
2023-01-17T15:28:34.349Z,13.27
2023-01-17T15:31:13.277Z,14.57
2023-01-17T15:33:44.407Z,13.43
2023-01-17T15:36:22.078Z,14.57
2023-01-17T15:39:00.174Z,13.90
2023-01-17T15:41:35.044Z,13.23
2023-01-17T15:44:03.258Z,13.05
2023-01-17T15:46:42.731Z,13.13
2023-01-17T15:49:23.954Z,13.57
2023-01-17T15:51:54.814Z,12.23
2023-01-17T15:54:47.842Z,12.25
2023-01-17T15:57:27.153Z,11.27
2023-01-17T16:00:15.883Z,10.73
2023-01-17T16:02:47.160Z,10.75
2023-01-17T16:05:31.139Z,10.52
2023-01-17T16:08:25.966Z,11.25
2023-01-17T16:10:55.395Z,13.02
2023-01-17T16:13:23.177Z,10.95
2023-01-17T16:15:50.808Z,8.82
2023-01-17T16:18:20.592Z,11.75
2023-01-17T16:20:53.263Z,10.95
2023-01-17T16:23:20.973Z,13.88
2023-01-17T16:25:48.439Z,12.45
2023-01-17T16:28:15.915Z,22.83
2023-01-17T16:30:45.249Z,21.27
2023-01-17T16:33:13.497Z,20.50
2023-01-17T16:35:43.052Z,27.02
2023-01-17T16:38:15.641Z,19.95
2023-01-17T16:40:44.929Z,18.27
2023-01-17T16:43:14.249Z,16.42
2023-01-17T16:45:43.815Z,16.52
2023-01-17T16:48:12.585Z,18.35
2023-01-17T16:50:50.338Z,17.08
2023-01-17T16:53:24.809Z,16.48
2023-01-17T16:55:55.956Z,15.48
2023-01-17T16:58:23.606Z,16.48
2023-01-17T17:00:50.939Z,15.60
2023-01-17T17:03:22.645Z,16.42
2023-01-17T17:05:58.727Z,16.15
2023-01-17T17:08:28.703Z,12.32
2023-01-17T17:11:12.953Z,17.23
2023-01-17T17:13:42.504Z,18.73
2023-01-17T17:16:14.989Z,19.30
2023-01-17T17:18:43.957Z,19.35
2023-01-17T17:21:11.978Z,22.42
2023-01-17T17:23:39.761Z,24.05
2023-01-17T17:26:07.206Z,23.98
2023-01-17T17:28:35.765Z,37.35
2023-01-17T17:31:11.305Z,65.43
2023-01-17T17:33:39.192Z,18.77
2023-01-17T17:36:08.147Z,13.95
2023-01-17T17:38:36.173Z,12.65
2023-01-17T17:41:10.209Z,15.82
2023-01-17T17:43:39.064Z,16.67
2023-01-17T17:46:06.719Z,15.98
2023-01-17T17:48:34.414Z,14.02
2023-01-17T17:51:02.383Z,18.90
2023-01-17T17:53:30.027Z,16.45
2023-01-17T17:56:06.719Z,17.83
2023-01-17T18:01:04.249Z,24.33
2023-01-17T18:03:33.633Z,17.45
2023-01-17T18:06:06.201Z,16.17
2023-01-17T18:08:34.646Z,15.00
2023-01-17T18:11:08.090Z,12.80
2023-01-17T18:13:35.440Z,16.48
2023-01-17T18:16:09.215Z,14.07
2023-01-17T18:18:41.829Z,11.85
2023-01-17T18:21:13.547Z,13.00
2023-01-17T18:23:43.433Z,14.77
2023-01-17T18:26:20.099Z,18.85
2023-01-17T18:28:48.270Z,15.65
2023-01-17T18:31:16.202Z,22.00
2023-01-17T18:33:44.089Z,17.90
2023-01-17T18:36:13.095Z,19.05
2023-01-17T18:38:46.495Z,15.18
2023-01-17T18:41:21.983Z,18.77
2023-01-17T18:43:49.846Z,15.98
2023-01-17T18:46:19.287Z,14.57
2023-01-17T18:48:47.149Z,16.67
2023-01-17T18:51:17.490Z,17.23
2023-01-17T18:53:46.252Z,15.40
2023-01-17T18:56:16.205Z,13.15
2023-01-17T18:58:46.469Z,14.80
2023-01-17T19:01:18.733Z,17.35
2023-01-17T19:03:48.968Z,16.92
2023-01-17T19:06:20.103Z,16.40
2023-01-17T19:08:49.283Z,14.20
2023-01-17T19:11:17.390Z,17.35
2023-01-17T19:13:45.046Z,15.18
2023-01-17T19:16:19.972Z,18.27
2023-01-17T19:18:47.646Z,18.25
2023-01-17T19:21:18.749Z,18.90
2023-01-17T19:23:46.761Z,18.00
2023-01-17T19:26:17.124Z,19.05
2023-01-17T19:28:47.095Z,18.77
2023-01-17T19:31:23.253Z,19.17
2023-01-17T19:33:53.484Z,18.05
2023-01-17T19:36:26.583Z,17.65
2023-01-17T19:39:04.415Z,16.58
2023-01-17T19:41:35.829Z,19.10
2023-01-17T19:44:08.312Z,17.98
2023-01-17T19:46:36.780Z,18.20
2023-01-17T19:49:07.423Z,20.65
2023-01-17T19:51:34.998Z,19.55
2023-01-17T19:54:04.050Z,19.45
2023-01-17T19:56:31.613Z,19.40
2023-01-17T19:59:01.670Z,21.50
2023-01-17T20:01:33.600Z,21.17
2023-01-17T20:04:02.265Z,18.23
2023-01-17T20:06:32.209Z,20.25
2023-01-17T20:08:59.792Z,19.38
2023-01-17T20:11:29.241Z,21.30
2023-01-17T20:13:58.136Z,20.17
2023-01-17T20:16:27.876Z,19.67
2023-01-17T20:18:55.722Z,19.02
2023-01-17T20:21:25.221Z,19.13
2023-01-17T20:23:54.708Z,19.50
2023-01-17T20:26:25.250Z,20.08
2023-01-17T20:28:53.263Z,20.90
2023-01-17T20:31:22.997Z,19.55
2023-01-17T20:33:51.211Z,22.40
2023-01-17T20:36:20.254Z,20.55
2023-01-17T20:38:48.911Z,21.40
2023-01-17T20:41:24.671Z,20.67
2023-01-17T20:43:54.439Z,18.70
2023-01-17T20:46:24.007Z,18.30
2023-01-17T20:48:53.542Z,18.77
2023-01-17T20:51:21.990Z,22.20
2023-01-17T20:53:58.034Z,19.00
2023-01-17T20:56:26.193Z,19.08
2023-01-17T20:58:54.780Z,19.27
2023-01-17T21:01:23.315Z,20.40
2023-01-17T21:03:53.776Z,18.23
2023-01-17T21:06:22.739Z,19.00
2023-01-17T21:08:51.650Z,14.93
2023-01-17T21:11:25.356Z,17.52
2023-01-17T21:13:52.918Z,17.40
2023-01-17T21:16:23.107Z,17.55
2023-01-17T21:18:51.766Z,18.10
2023-01-17T21:21:24.409Z,17.98
2023-01-17T21:23:54.456Z,17.50
2023-01-17T21:26:25.630Z,18.58
2023-01-17T21:28:53.678Z,17.15
2023-01-17T21:31:26.760Z,18.58
2023-01-17T21:33:55.924Z,15.30
2023-01-17T21:36:25.815Z,14.50
2023-01-17T21:38:56.953Z,16.67
2023-01-17T21:41:28.687Z,16.38
2023-01-17T21:43:58.783Z,14.43
2023-01-17T21:46:27.805Z,15.10
2023-01-17T21:48:56.739Z,14.52
2023-01-17T21:51:25.032Z,15.95
2023-01-17T21:53:52.292Z,17.08
2023-01-17T21:56:38.323Z,17.80
2023-01-17T21:59:05.617Z,15.57
2023-01-17T22:01:33.420Z,15.90
2023-01-17T22:04:02.902Z,15.95
2023-01-17T22:06:41.082Z,16.25
2023-01-17T22:09:08.410Z,16.48
2023-01-17T22:11:36.668Z,15.00
2023-01-17T22:14:04.629Z,17.35
2023-01-17T22:16:32.190Z,16.25
2023-01-17T22:18:59.430Z,14.73
2023-01-17T22:21:28.498Z,14.77
2023-01-17T22:23:58.187Z,13.05
2023-01-17T22:26:30.599Z,8.57
2023-01-17T22:29:02.295Z,14.38
2023-01-17T22:31:30.399Z,11.50
2023-01-17T22:34:00.862Z,14.68
2023-01-17T22:36:29.811Z,15.98
2023-01-17T22:38:57.535Z,13.98
2023-01-17T22:41:31.182Z,13.57
2023-01-17T22:44:02.067Z,11.70
2023-01-17T22:46:31.645Z,15.00
2023-01-17T22:48:59.766Z,14.27
2023-01-17T22:51:28.422Z,13.95
2023-01-17T22:53:58.017Z,14.32
2023-01-17T22:56:28.213Z,13.95
2023-01-17T22:58:55.584Z,14.02
2023-01-17T23:01:26.321Z,12.27
2023-01-17T23:03:56.842Z,12.88
2023-01-17T23:06:28.769Z,12.38
2023-01-17T23:08:58.858Z,10.93
2023-01-17T23:11:43.198Z,12.25
2023-01-17T23:14:12.158Z,15.18
2023-01-17T23:17:02.082Z,10.98
2023-01-17T23:19:35.787Z,12.15
2023-01-17T23:22:17.301Z,12.80
2023-01-17T23:24:52.009Z,8.65
2023-01-17T23:27:48.129Z,10.70
2023-01-17T23:30:24.966Z,11.73
2023-01-17T23:35:22.377Z,11.38
2023-01-17T23:38:08.593Z,9.60
2023-01-17T23:40:37.682Z,11.45
2023-01-17T23:43:23.316Z,11.20
2023-01-17T23:45:53.087Z,12.35
2023-01-17T23:48:26.256Z,12.80
2023-01-17T23:51:08.356Z,12.57
2023-01-17T23:53:38.036Z,9.85
2023-01-17T23:56:10.768Z,9.77
2023-01-17T23:58:38.383Z,7.65
